Time;durP1;ratioP1;P1;durP2;ratioP2;P2;SDS_P1;SDS_P2;PMS_P1;PMS_P2;Temp;Humidity;BMP_temperature;BMP_pressure;BME280_temperature;BME280_humidity;BME280_pressure;Samples;Min_cycle;Max_cycle;Signal;HPM_P1;HPM_P2
2022/02/19 00:01:58;;;;;;;;;;;;;;;17.23;44.68;101137.88;5076009;28;1230;-58
2022/02/19 00:04:24;;;;;;;;;;;;;;;17.25;44.87;101138.44;5075071;28;1178;-58
2022/02/19 00:06:50;;;;;;;;;;;;;;;17.24;45.15;101142.28;5075859;28;1222;-58
2022/02/19 00:09:15;;;;;;;;;;;;;;;17.57;44.63;101156.69;5075230;28;1151;-58
2022/02/19 00:11:41;;;;;;;;;;;;;;;17.97;43.44;101155.13;5075674;28;1115;-56
2022/02/19 00:14:06;;;;;;;;;;;;;;;18.34;42.69;101137.53;5078866;28;1288;-59
2022/02/19 00:16:31;;;;;;;;;;;;;;;18.58;42.16;101136.94;5077907;28;1971;-58
2022/02/19 00:18:57;;;;;;;;;;;;;;;18.36;42.66;101140.00;5079192;28;1084;-59
2022/02/19 00:21:23;;;;;;;;;;;;;;;17.96;43.19;101136.97;5078276;28;1267;-57
2022/02/19 00:23:48;;;;;;;;;;;;;;;17.64;43.71;101140.75;5079363;28;1177;-58
2022/02/19 00:26:13;;;;;;;;;;;;;;;17.47;43.57;101129.97;5077645;28;1280;-57
2022/02/19 00:28:39;;;;;;;;;;;;;;;17.43;43.72;101126.97;5078452;28;1269;-57
2022/02/19 00:31:04;;;;;;;;;;;;;;;17.31;43.35;101126.38;5078026;28;1224;-59
2022/02/19 00:33:31;;;;;;;;;;;;;;;17.32;44.25;101122.53;5079588;28;761;-57
2022/02/19 00:35:57;;;;;;;;;;;;;;;17.54;44.21;101124.22;5079950;28;1909;-59
2022/02/19 00:38:22;;;;;;;;;;;;;;;17.79;44.01;101121.53;5112166;28;1565;-57
2022/02/19 00:40:48;;;;;;;;;;;;;;;18.60;42.06;101116.28;5079126;28;909;-55
2022/02/19 00:43:13;;;;;;;;;;;;;;;18.47;41.90;101131.44;5079789;28;1044;-59
2022/02/19 00:45:39;;;;;;;;;;;;;;;17.80;42.89;101130.59;5079492;28;950;-59
2022/02/19 00:48:05;;;;;;;;;;;;;;;17.45;42.91;101116.50;5079325;28;776;-57
2022/02/19 00:50:31;;;;;;;;;;;;;;;17.56;44.00;101116.56;5078735;28;1237;-58
2022/02/19 00:52:56;;;;;;;;;;;;;;;17.54;44.60;101107.72;5077858;28;1102;-58
2022/02/19 00:55:22;;;;;;;;;;;;;;;18.02;43.12;101102.88;5078530;28;937;-58
2022/02/19 00:57:47;;;;;;;;;;;;;;;18.30;42.56;101104.22;5079511;28;1984;-58
2022/02/19 01:00:13;;;;;;;;;;;;;;;18.42;42.45;101105.84;5111545;28;1482;-58
2022/02/19 01:02:59;;;;;;;;;;;;;;;18.24;42.71;101107.25;5078602;28;1259;-55
2022/02/19 01:05:27;;;;;;;;;;;;;;;17.67;43.53;101111.88;5112010;28;1185;-57
2022/02/19 01:07:53;;;;;;;;;;;;;;;17.44;43.31;101112.09;5078769;28;872;-56
2022/02/19 01:10:18;;;;;;;;;;;;;;;17.45;43.66;101102.75;5079070;28;1083;-57
2022/02/19 01:12:44;;;;;;;;;;;;;;;17.59;44.21;101105.81;5111675;28;1156;-59
2022/02/19 01:15:11;;;;;;;;;;;;;;;17.86;43.37;101101.19;5078680;28;863;-59
2022/02/19 01:17:37;;;;;;;;;;;;;;;18.07;42.94;101100.09;5072797;28;1913;-55
2022/02/19 01:20:03;;;;;;;;;;;;;;;18.20;42.54;101098.75;5111282;28;1587;-57
2022/02/19 01:22:28;;;;;;;;;;;;;;;18.28;42.51;101108.34;5078873;28;854;-59
2022/02/19 01:24:54;;;;;;;;;;;;;;;18.01;43.07;101095.72;5077708;28;1140;-57
2022/02/19 01:27:19;;;;;;;;;;;;;;;17.59;43.57;101094.00;5078673;28;785;-57
2022/02/19 01:29:45;;;;;;;;;;;;;;;17.41;43.68;101084.34;5111062;28;1221;-59
2022/02/19 01:32:10;;;;;;;;;;;;;;;17.36;43.67;101090.66;5110597;28;1216;-57
2022/02/19 01:34:36;;;;;;;;;;;;;;;17.37;43.96;101086.78;5078479;28;1552;-57
2022/02/19 01:37:02;;;;;;;;;;;;;;;17.92;43.53;101086.34;5107497;27;1898;-55
2022/02/19 01:39:31;;;;;;;;;;;;;;;18.04;42.99;101077.81;5077024;28;1217;-55
2022/02/19 01:42:00;;;;;;;;;;;;;;;18.05;42.92;101080.28;5077431;28;1145;-53
2022/02/19 01:44:36;;;;;;;;;;;;;;;17.68;43.62;101080.53;5078295;28;844;-56
2022/02/19 01:47:04;;;;;;;;;;;;;;;16.64;45.16;101095.81;5075585;28;1623;-56
2022/02/19 01:49:30;;;;;;;;;;;;;;;15.79;46.72;101080.13;5078430;28;770;-56
2022/02/19 01:51:56;;;;;;;;;;;;;;;16.60;46.47;101090.03;5076835;28;1879;-55
2022/02/19 01:54:21;;;;;;;;;;;;;;;16.92;45.66;101080.06;5110791;28;1491;-52
2022/02/19 01:56:56;;;;;;;;;;;;;;;16.53;46.47;101066.66;5110695;28;1992;-56
2022/02/19 01:59:40;;;;;;;;;;;;;;;17.16;44.88;101083.16;5076908;28;782;-54
2022/02/19 02:02:44;;;;;;;;;;;;;;;15.66;48.03;101075.06;5078509;28;724;-55
2022/02/19 02:05:41;;;;;;;;;;;;;;;17.44;44.16;101081.84;5077391;28;1177;-56
2022/02/19 02:08:07;;;;;;;;;;;;;;;18.88;40.68;101060.84;5078350;28;828;-53
2022/02/19 02:10:33;;;;;;;;;;;;;;;18.52;41.29;101078.28;5077447;28;889;-55
2022/02/19 02:12:59;;;;;;;;;;;;;;;18.67;41.01;101082.13;5075881;28;1425;-58
2022/02/19 02:15:25;;;;;;;;;;;;;;;16.76;45.11;101088.22;5110282;28;1106;-56
2022/02/19 02:18:04;;;;;;;;;;;;;;;15.04;48.61;101086.19;5076898;28;1972;-57
2022/02/19 02:20:30;;;;;;;;;;;;;;;17.34;44.30;101092.84;5110363;28;1278;-56
2022/02/19 02:22:55;;;;;;;;;;;;;;;19.01;40.03;101085.03;5077614;28;746;-56
2022/02/19 02:25:26;;;;;;;;;;;;;;;18.37;41.83;101106.69;5075866;28;825;-56
2022/02/19 02:27:51;;;;;;;;;;;;;;;18.73;40.85;101087.34;5077305;28;792;-58
2022/02/19 02:30:18;;;;;;;;;;;;;;;16.88;44.60;101099.00;5077562;28;917;-58
2022/02/19 02:32:48;;;;;;;;;;;;;;;15.34;48.64;101093.09;5076300;28;1126;-55
2022/02/19 02:35:15;;;;;;;;;;;;;;;17.17;44.49;101104.06;5076588;28;845;-57
2022/02/19 02:37:44;;;;;;;;;;;;;;;19.04;40.18;101098.28;5076039;28;1913;-55
2022/02/19 02:40:10;;;;;;;;;;;;;;;18.39;41.43;101106.41;5077343;28;811;-54
2022/02/19 02:42:35;;;;;;;;;;;;;;;18.85;40.44;101099.97;5075919;28;1218;-59
2022/02/19 02:45:06;;;;;;;;;;;;;;;16.92;44.51;101102.03;5109649;28;1151;-55
2022/02/19 02:47:32;;;;;;;;;;;;;;;15.43;48.14;101098.13;5075331;28;1356;-57
2022/02/19 02:49:58;;;;;;;;;;;;;;;16.75;45.63;101111.25;5075569;28;1129;-57
2022/02/19 02:52:23;;;;;;;;;;;;;;;18.85;40.31;101109.03;5110014;28;1268;-55
2022/02/19 02:54:49;;;;;;;;;;;;;;;18.11;41.86;101100.38;5109854;28;1100;-57
2022/02/19 02:57:15;;;;;;;;;;;;;;;18.87;40.34;101106.00;5109676;28;1963;-55
2022/02/19 02:59:40;;;;;;;;;;;;;;;17.55;42.98;101131.38;5077105;28;899;-57
2022/02/19 03:02:06;;;;;;;;;;;;;;;15.76;47.10;101124.50;5109059;28;1247;-57
2022/02/19 03:04:32;;;;;;;;;;;;;;;15.88;47.48;101132.59;5077061;28;820;-57
2022/02/19 03:06:57;;;;;;;;;;;;;;;18.55;41.04;101131.97;5109806;28;1212;-56
2022/02/19 03:09:23;;;;;;;;;;;;;;;18.27;41.35;101137.81;5109603;28;1213;-55
2022/02/19 03:11:49;;;;;;;;;;;;;;;18.92;40.31;101130.84;5076690;28;968;-53
2022/02/19 03:14:15;;;;;;;;;;;;;;;18.17;41.34;101137.78;5108762;28;1323;-55
2022/02/19 03:16:40;;;;;;;;;;;;;;;16.15;46.26;101132.53;5109108;28;1910;-57
2022/02/19 03:19:06;;;;;;;;;;;;;;;16.02;47.34;101128.34;5076804;28;860;-56
2022/02/19 03:21:33;;;;;;;;;;;;;;;18.62;41.01;101133.34;5108859;28;1344;-56
2022/02/19 03:23:59;;;;;;;;;;;;;;;19.38;39.01;101136.13;5109431;28;1245;-56
2022/02/19 03:26:24;;;;;;;;;;;;;;;19.45;38.61;101141.34;5076286;28;885;-56
2022/02/19 03:28:49;;;;;;;;;;;;;;;19.25;39.32;101147.78;5109073;28;1128;-56
2022/02/19 03:31:16;;;;;;;;;;;;;;;17.72;42.52;101156.72;5108933;28;1136;-56
2022/02/19 03:33:50;;;;;;;;;;;;;;;15.71;46.22;101151.84;5108934;28;1426;-56
2022/02/19 03:36:20;;;;;;;;;;;;;;;16.62;45.69;101147.44;5109142;28;1905;-53
2022/02/19 03:38:46;;;;;;;;;;;;;;;18.95;39.94;101146.78;5109032;28;1112;-56
2022/02/19 03:41:20;;;;;;;;;;;;;;;18.33;41.29;101143.28;5075079;28;1301;-56
2022/02/19 03:43:45;;;;;;;;;;;;;;;19.13;39.38;101143.41;5074998;28;1320;-57
2022/02/19 03:46:12;;;;;;;;;;;;;;;17.81;42.35;101145.19;5076124;28;882;-56
2022/02/19 03:48:52;;;;;;;;;;;;;;;15.71;47.11;101157.34;5074960;28;1224;-56
2022/02/19 03:51:20;;;;;;;;;;;;;;;16.22;46.46;101146.06;5108779;28;1180;-54
2022/02/19 03:53:47;;;;;;;;;;;;;;;18.70;40.45;101151.22;5076027;28;820;-57
2022/02/19 03:56:16;;;;;;;;;;;;;;;18.17;41.39;101153.50;5108979;28;1906;-53
2022/02/19 03:58:42;;;;;;;;;;;;;;;18.99;39.65;101147.88;5091881;28;1360;-56
2022/02/19 04:01:09;;;;;;;;;;;;;;;18.16;41.40;101140.81;5106732;28;1197;-55
2022/02/19 04:03:34;;;;;;;;;;;;;;;16.26;45.65;101133.47;5074826;28;1261;-55
2022/02/19 04:06:02;;;;;;;;;;;;;;;15.16;48.78;101148.22;5107862;28;1329;-58
2022/02/19 04:08:28;;;;;;;;;;;;;;;18.01;41.82;101148.00;5076037;28;902;-57
2022/02/19 04:10:55;;;;;;;;;;;;;;;18.50;40.75;101145.78;5076036;28;1043;-57
2022/02/19 04:13:21;;;;;;;;;;;;;;;19.07;39.56;101143.72;5074620;28;1243;-58
2022/02/19 04:16:00;;;;;;;;;;;;;;;18.73;39.89;101167.22;5108333;28;1898;-55
2022/02/19 04:18:30;;;;;;;;;;;;;;;16.61;44.70;101165.00;5090784;28;1258;-55
2022/02/19 04:20:56;;;;;;;;;;;;;;;15.03;48.06;101158.47;5075821;28;1103;-57
2022/02/19 04:23:21;;;;;;;;;;;;;;;17.51;43.29;101153.09;5076062;28;832;-57
2022/02/19 04:25:47;;;;;;;;;;;;;;;18.84;39.71;101140.44;5108686;28;1109;-55
2022/02/19 04:28:22;;;;;;;;;;;;;;;18.78;39.96;101142.41;5090146;28;1473;-56
2022/02/19 04:30:50;;;;;;;;;;;;;;;19.11;39.14;101140.13;5107910;28;954;-56
2022/02/19 04:33:16;;;;;;;;;;;;;;;17.04;43.41;101132.03;5108619;28;1312;-56
2022/02/19 04:35:47;;;;;;;;;;;;;;;15.36;47.42;101134.78;5090370;28;1118;-53
2022/02/19 04:38:13;;;;;;;;;;;;;;;17.12;43.88;101128.75;5076280;28;1972;-56
2022/02/19 04:40:39;;;;;;;;;;;;;;;18.93;39.50;101124.22;5076187;28;885;-54
2022/02/19 04:43:04;;;;;;;;;;;;;;;18.72;40.12;101132.50;5073605;28;1393;-55
2022/02/19 04:45:33;;;;;;;;;;;;;;;19.45;38.38;101125.63;5107122;28;1228;-53
2022/02/19 04:47:59;;;;;;;;;;;;;;;17.37;42.82;101133.53;5062513;28;2736;-53
2022/02/19 04:50:25;;;;;;;;;;;;;;;15.70;46.64;101136.50;5107939;28;1499;-54
2022/02/19 04:52:53;;;;;;;;;;;;;;;16.65;44.93;101140.56;5107098;28;1328;-50
2022/02/19 04:55:19;;;;;;;;;;;;;;;18.86;39.64;101140.16;5074221;28;1105;-54
2022/02/19 04:57:45;;;;;;;;;;;;;;;18.27;40.92;101137.81;5075505;28;1919;-52
2022/02/19 05:00:14;;;;;;;;;;;;;;;19.44;38.52;101150.72;5111517;28;1149;-50
2022/02/19 05:02:59;;;;;;;;;;;;;;;17.30;42.76;101157.69;5072807;28;1091;-52
2022/02/19 05:05:26;;;;;;;;;;;;;;;15.71;46.54;101160.06;5104729;28;1052;-50
2022/02/19 05:07:52;;;;;;;;;;;;;;;16.22;46.04;101148.78;5112159;28;1097;-51
2022/02/19 05:10:17;;;;;;;;;;;;;;;18.76;39.90;101168.56;5111164;28;1216;-51
2022/02/19 05:12:43;;;;;;;;;;;;;;;18.30;40.94;101177.72;5077445;28;1241;-47
2022/02/19 05:15:14;;;;;;;;;;;;;;;19.36;38.39;101174.19;5111678;28;1200;-51
2022/02/19 05:17:49;;;;;;;;;;;;;;;17.89;41.42;101177.66;5072416;28;1976;-52
2022/02/19 05:20:15;;;;;;;;;;;;;;;16.02;45.90;101177.72;5105349;28;1217;-49
2022/02/19 05:22:41;;;;;;;;;;;;;;;15.39;47.94;101180.84;5060974;28;1145;-47
2022/02/19 05:25:07;;;;;;;;;;;;;;;18.25;40.98;101175.78;5111752;28;1446;-48
2022/02/19 05:27:32;;;;;;;;;;;;;;;18.46;40.05;101179.34;5077792;28;1284;-51
2022/02/19 05:30:04;;;;;;;;;;;;;;;18.96;39.42;101181.53;5111775;28;1135;-50
2022/02/19 05:32:33;;;;;;;;;;;;;;;18.35;40.16;101172.19;5059917;28;1209;-53
2022/02/19 05:35:10;;;;;;;;;;;;;;;16.26;44.92;101160.91;5106078;28;1387;-53
2022/02/19 05:37:37;;;;;;;;;;;;;;;15.51;47.89;101160.69;5111263;28;1906;-54
2022/02/19 05:40:04;;;;;;;;;;;;;;;18.33;40.79;101155.16;5111259;28;1266;-53
2022/02/19 05:42:30;;;;;;;;;;;;;;;18.17;40.91;101142.50;5111097;28;1220;-51
2022/02/19 05:45:15;;;;;;;;;;;;;;;19.04;39.01;101160.81;5078253;28;978;-51
2022/02/19 05:47:44;;;;;;;;;;;;;;;17.81;41.45;101173.53;5076705;28;1289;-55
2022/02/19 05:50:28;;;;;;;;;;;;;;;15.88;46.08;101166.31;5110816;28;1644;-52
2022/02/19 05:52:58;;;;;;;;;;;;;;;16.39;45.30;101189.81;5076898;28;1261;-53
2022/02/19 05:55:33;;;;;;;;;;;;;;;18.82;39.45;101186.75;5104838;28;1216;-52
2022/02/19 05:57:59;;;;;;;;;;;;;;;18.25;40.78;101189.53;5110939;28;2003;-54
2022/02/19 06:00:25;;;;;;;;;;;;;;;18.79;39.61;101179.88;5110103;28;1116;-58
2022/02/19 06:02:51;;;;;;;;;;;;;;;17.29;42.40;101161.53;5076965;28;1139;-54
2022/02/19 06:05:17;;;;;;;;;;;;;;;15.76;45.80;101168.38;5076752;28;1198;-54
2022/02/19 06:07:46;;;;;;;;;;;;;;;16.89;44.08;101165.75;5078290;28;940;-56
2022/02/19 06:10:12;;;;;;;;;;;;;;;18.97;39.12;101167.47;5109419;28;1301;-51
2022/02/19 06:12:39;;;;;;;;;;;;;;;18.86;39.15;101165.81;5076302;28;1129;-54
2022/02/19 06:15:11;;;;;;;;;;;;;;;18.88;39.15;101187.59;5103885;28;1268;-54
2022/02/19 06:18:00;;;;;;;;;;;;;;;17.71;41.76;101188.09;5077680;28;1965;-55
2022/02/19 06:20:27;;;;;;;;;;;;;;;16.21;45.10;101196.53;5110486;28;1413;-55
2022/02/19 06:22:53;;;;;;;;;;;;;;;15.26;47.69;101200.41;5110549;28;1517;-57
2022/02/19 06:25:19;;;;;;;;;;;;;;;17.91;41.48;101200.25;5109589;28;1535;-55
2022/02/19 06:27:45;;;;;;;;;;;;;;;18.72;39.34;101193.13;5110160;28;1247;-54
2022/02/19 06:30:21;;;;;;;;;;;;;;;18.54;40.07;101182.69;5110090;28;1176;-56
2022/02/19 06:32:53;;;;;;;;;;;;;;;18.13;40.80;101184.31;5076112;28;1152;-55
2022/02/19 06:35:21;;;;;;;;;;;;;;;16.13;45.21;101192.34;5077098;28;1003;-53
2022/02/19 06:37:46;;;;;;;;;;;;;;;15.52;47.60;101195.25;5109649;28;1977;-56
2022/02/19 06:40:13;;;;;;;;;;;;;;;18.22;40.97;101181.03;5077297;28;811;-54
2022/02/19 06:42:41;;;;;;;;;;;;;;;18.32;40.46;101180.22;5108159;28;1253;-54
2022/02/19 06:45:27;;;;;;;;;;;;;;;17.92;41.16;101185.38;5075573;28;1176;-58
2022/02/19 06:47:54;;;;;;;;;;;;;;;17.04;43.07;101187.81;5074528;28;1106;-57
2022/02/19 06:50:22;;;;;;;;;;;;;;;15.28;47.11;101183.69;5075557;28;1124;-53
2022/02/19 06:52:49;;;;;;;;;;;;;;;17.45;42.41;101178.94;5075628;28;1241;-55
2022/02/19 06:55:18;;;;;;;;;;;;;;;18.83;39.04;101176.56;5109079;28;1484;-55
2022/02/19 06:57:48;;;;;;;;;;;;;;;17.93;41.03;101174.09;5077162;28;1917;-57
2022/02/19 07:00:15;;;;;;;;;;;;;;;17.82;41.46;101171.59;5109690;28;1106;-55
2022/02/19 07:02:46;;;;;;;;;;;;;;;16.05;45.10;101171.69;5074738;28;1225;-54
2022/02/19 07:05:14;;;;;;;;;;;;;;;16.87;43.87;101160.50;5075317;28;1476;-56
2022/02/19 07:07:59;;;;;;;;;;;;;;;18.86;39.27;101167.72;5063881;28;1295;-57
2022/02/19 07:10:27;;;;;;;;;;;;;;;18.05;40.90;101168.34;5108868;28;1347;-57
2022/02/19 07:12:54;;;;;;;;;;;;;;;18.29;40.34;101171.38;5075457;28;1317;-56
2022/02/19 07:15:20;;;;;;;;;;;;;;;16.46;44.29;101171.19;5108521;28;1341;-57
2022/02/19 07:18:04;;;;;;;;;;;;;;;15.70;46.97;101175.72;5076350;28;1976;-55
2022/02/19 07:20:43;;;;;;;;;;;;;;;18.59;39.96;101168.88;5109511;28;1382;-56
2022/02/19 07:23:08;;;;;;;;;;;;;;;18.31;40.21;101171.09;5109428;28;1129;-55
2022/02/19 07:25:34;;;;;;;;;;;;;;;17.75;41.39;101172.69;5075012;28;1118;-57
2022/02/19 07:28:00;;;;;;;;;;;;;;;17.05;42.96;101172.97;5109598;28;1191;-56
2022/02/19 07:30:25;;;;;;;;;;;;;;;15.54;46.66;101179.34;5075130;28;1098;-57
2022/02/19 07:32:52;;;;;;;;;;;;;;;17.06;43.56;101188.38;5076013;28;848;-55
2022/02/19 07:35:52;;;;;;;;;;;;;;;18.87;39.20;101181.25;5062566;28;1305;-58
2022/02/19 07:38:21;;;;;;;;;;;;;;;17.92;41.19;101175.22;5076299;28;1910;-58
2022/02/19 07:40:47;;;;;;;;;;;;;;;17.78;41.28;101171.28;5108432;28;1116;-56
2022/02/19 07:43:13;;;;;;;;;;;;;;;16.07;45.19;101175.03;5109258;28;1856;-56
2022/02/19 07:46:01;;;;;;;;;;;;;;;16.67;44.46;101176.84;5071412;28;858;-58
2022/02/19 07:48:45;;;;;;;;;;;;;;;18.98;38.81;101176.53;5076186;28;642;-57
2022/02/19 07:59:58;;;;;;;;;;;;;;;17.07;43.38;101164.47;5057156;28;1118;-57
2022/02/19 08:02:25;;;;;;;;;;;;;;;19.08;38.84;101178.44;5074728;28;1316;-56
2022/02/19 08:04:51;;;;;;;;;;;;;;;18.07;40.59;101177.16;5108941;28;1141;-56
2022/02/19 08:07:17;;;;;;;;;;;;;;;17.45;42.04;101171.50;5108340;28;1359;-55
2022/02/19 08:09:42;;;;;;;;;;;;;;;16.12;44.93;101176.13;5108680;28;1411;-55
2022/02/19 08:12:08;;;;;;;;;;;;;;;15.78;46.42;101168.09;5108574;28;1225;-58
2022/02/19 08:14:33;;;;;;;;;;;;;;;18.23;40.84;101163.38;5075703;28;1070;-55
2022/02/19 08:16:59;;;;;;;;;;;;;;;18.58;39.62;101164.47;5075751;28;1906;-58
2022/02/19 08:19:24;;;;;;;;;;;;;;;17.92;41.17;101163.38;5075925;28;880;-57
2022/02/19 08:21:50;;;;;;;;;;;;;;;17.55;41.67;101153.38;5076163;28;812;-58
2022/02/19 08:24:15;;;;;;;;;;;;;;;15.99;45.12;101149.97;5075546;28;961;-58
2022/02/19 08:26:41;;;;;;;;;;;;;;;16.26;45.47;101149.94;5074730;28;745;-58
2022/02/19 08:29:08;;;;;;;;;;;;;;;18.59;39.65;101144.09;5074561;28;865;-56
2022/02/19 08:31:36;;;;;;;;;;;;;;;18.53;39.62;101139.72;5073921;28;790;-58
2022/02/19 08:34:02;;;;;;;;;;;;;;;17.83;41.11;101134.75;5110154;28;972;-56
2022/02/19 08:36:27;;;;;;;;;;;;;;;16.89;43.35;101136.34;5079753;28;1970;-58
2022/02/19 08:38:53;;;;;;;;;;;;;;;15.54;46.80;101141.84;5079570;28;746;-58
2022/02/19 08:41:18;;;;;;;;;;;;;;;17.49;42.39;101141.53;5080005;28;807;-56
2022/02/19 08:43:43;;;;;;;;;;;;;;;19.03;38.43;101132.44;5079572;28;779;-57
2022/02/19 08:46:09;;;;;;;;;;;;;;;18.11;40.53;101139.72;5078450;28;813;-58
2022/02/19 08:48:34;;;;;;;;;;;;;;;17.67;41.55;101137.47;5079804;28;805;-58
2022/02/19 08:51:00;;;;;;;;;;;;;;;16.14;44.83;101124.59;5079925;28;766;-57
2022/02/19 08:53:26;;;;;;;;;;;;;;;16.12;45.56;101121.25;5079276;28;836;-54
2022/02/19 08:55:51;;;;;;;;;;;;;;;18.48;40.04;101121.25;5079818;28;801;-56
2022/02/19 08:58:17;;;;;;;;;;;;;;;18.33;39.85;101124.88;5078696;28;1890;-56
2022/02/19 09:00:42;;;;;;;;;;;;;;;17.75;41.22;101125.09;5078882;28;874;-55
2022/02/19 09:03:08;;;;;;;;;;;;;;;16.71;43.63;101123.88;5079408;28;884;-54
2022/02/19 09:05:33;;;;;;;;;;;;;;;15.44;47.06;101108.81;5079428;28;804;-57
2022/02/19 09:07:59;;;;;;;;;;;;;;;17.92;41.12;101106.44;5078997;28;929;-54
2022/02/19 09:10:24;;;;;;;;;;;;;;;18.62;39.30;101116.00;5078970;28;806;-56
2022/02/19 09:12:50;;;;;;;;;;;;;;;17.74;41.29;101118.78;5079367;28;1129;-51
2022/02/19 09:15:19;;;;;;;;;;;;;;;17.03;42.69;101114.72;5078871;28;894;-55
2022/02/19 09:17:45;;;;;;;;;;;;;;;15.53;46.24;101112.75;5078657;28;1913;-56
2022/02/19 09:20:10;;;;;;;;;;;;;;;17.36;42.48;101103.56;5078848;28;860;-57
2022/02/19 09:22:37;;;;;;;;;;;;;;;19.13;38.43;101092.97;5078906;28;740;-55
2022/02/19 09:25:03;;;;;;;;;;;;;;;17.88;40.79;101097.06;5079483;28;931;-58
2022/02/19 09:27:28;;;;;;;;;;;;;;;17.47;41.71;101093.44;5078894;28;824;-56
2022/02/19 09:29:53;;;;;;;;;;;;;;;16.00;45.32;101103.06;5078495;28;825;-57
2022/02/19 09:32:19;;;;;;;;;;;;;;;16.39;44.83;101105.56;5078659;28;1005;-56
2022/02/19 09:34:44;;;;;;;;;;;;;;;18.69;39.39;101099.19;5078716;28;758;-57
2022/02/19 09:37:10;;;;;;;;;;;;;;;18.41;39.55;101087.66;5077571;28;1982;-57
2022/02/19 09:39:36;;;;;;;;;;;;;;;17.73;41.20;101083.28;5078871;28;829;-57
2022/02/19 09:42:03;;;;;;;;;;;;;;;16.62;43.67;101077.97;5078666;28;777;-56
2022/02/19 09:44:29;;;;;;;;;;;;;;;15.54;46.50;101080.69;5078375;28;856;-54
2022/02/19 09:46:55;;;;;;;;;;;;;;;18.01;40.67;101073.69;5078155;28;902;-57
2022/02/19 09:49:21;;;;;;;;;;;;;;;18.72;38.84;101060.03;5078553;28;952;-59
2022/02/19 09:51:46;;;;;;;;;;;;;;;17.75;40.87;101061.81;5111170;28;769;-55
2022/02/19 09:54:11;;;;;;;;;;;;;;;17.06;42.53;101052.94;5078358;28;806;-54
2022/02/19 09:56:37;;;;;;;;;;;;;;;15.39;45.82;101052.06;5078208;28;1909;-54
2022/02/19 09:59:06;;;;;;;;;;;;;;;17.35;42.22;101050.53;5077950;28;922;-57
2022/02/19 10:01:31;;;;;;;;;;;;;;;18.98;38.24;101044.25;5077373;28;984;-56
2022/02/19 10:04:03;;;;;;;;;;;;;;;17.98;40.61;101040.38;5077808;28;1206;-56
2022/02/19 10:06:33;;;;;;;;;;;;;;;17.40;41.38;101028.56;5078168;28;833;-55
2022/02/19 10:09:07;;;;;;;;;;;;;;;15.81;45.15;101030.50;5077637;28;976;-56
2022/02/19 10:11:33;;;;;;;;;;;;;;;16.56;43.96;101022.19;5077872;28;1056;-56
2022/02/19 10:13:58;;;;;;;;;;;;;;;18.74;38.82;101022.03;5077677;28;1234;-55
2022/02/19 10:16:25;;;;;;;;;;;;;;;19.21;37.52;101017.13;5077646;28;1918;-58
2022/02/19 10:18:50;;;;;;;;;;;;;;;18.61;38.75;101021.53;5077379;28;796;-56
2022/02/19 10:21:16;;;;;;;;;;;;;;;17.57;40.93;101013.69;5078105;28;777;-57
2022/02/19 10:23:43;;;;;;;;;;;;;;;16.27;43.27;101013.53;5077641;28;813;-58
2022/02/19 10:26:08;;;;;;;;;;;;;;;15.86;45.51;101020.41;5077862;28;927;-58
2022/02/19 10:28:34;;;;;;;;;;;;;;;18.31;39.83;101022.44;5077499;28;981;-55
2022/02/19 10:31:09;;;;;;;;;;;;;;;18.49;38.86;101011.94;5109591;28;1061;-56
2022/02/19 10:33:34;;;;;;;;;;;;;;;17.76;40.59;101011.22;5077399;28;809;-57
2022/02/19 10:36:00;;;;;;;;;;;;;;;16.58;43.14;101009.06;5077682;28;820;-57
2022/02/19 10:38:26;;;;;;;;;;;;;;;15.67;45.71;101000.78;5110104;28;1905;-56
2022/02/19 10:40:52;;;;;;;;;;;;;;;16.42;43.66;100995.25;5076969;28;821;-57
2022/02/19 10:43:20;;;;;;;;;;;;;;;17.34;41.44;100990.31;5077154;28;845;-57
2022/02/19 10:45:53;;;;;;;;;;;;;;;17.27;41.58;100996.09;5076636;28;886;-56
2022/02/19 10:48:21;;;;;;;;;;;;;;;16.95;42.35;100986.13;5077613;28;795;-58
2022/02/19 10:50:47;;;;;;;;;;;;;;;16.63;42.91;100973.38;5076952;28;850;-55
2022/02/19 10:53:23;;;;;;;;;;;;;;;16.24;43.74;100969.09;5075552;28;785;-54
2022/02/19 10:55:49;;;;;;;;;;;;;;;16.17;44.20;100970.41;5076871;28;921;-54
2022/02/19 10:58:14;;;;;;;;;;;;;;;16.76;42.42;100967.38;5076786;28;1985;-54
2022/02/19 11:00:40;;;;;;;;;;;;;;;16.51;43.13;100970.00;5076622;28;967;-54
2022/02/19 11:03:06;;;;;;;;;;;;;;;16.56;43.17;100965.41;5077233;28;754;-53
2022/02/19 11:05:32;;;;;;;;;;;;;;;17.14;41.71;100958.13;5076324;28;1083;-52
2022/02/19 11:07:58;;;;;;;;;;;;;;;16.98;41.78;100954.53;5076807;28;788;-54
2022/02/19 11:10:24;;;;;;;;;;;;;;;17.23;41.25;100942.75;5109122;28;1106;-52
2022/02/19 11:12:50;;;;;;;;;;;;;;;17.50;40.70;100934.25;5076301;28;1181;-54
2022/02/19 11:15:23;;;;;;;;;;;;;;;17.40;40.83;100929.59;5076235;28;911;-52
2022/02/19 11:17:48;;;;;;;;;;;;;;;17.45;40.93;100940.56;5076205;28;1917;-53
2022/02/19 11:20:14;;;;;;;;;;;;;;;17.37;40.77;100921.06;5076387;28;1131;-53
2022/02/19 11:22:40;;;;;;;;;;;;;;;17.46;40.95;100933.16;5076710;28;1147;-53
2022/02/19 11:25:09;;;;;;;;;;;;;;;17.29;41.20;100927.91;5076324;28;1095;-51
2022/02/19 11:27:40;;;;;;;;;;;;;;;17.33;41.16;100923.50;5108812;28;1461;-53
2022/02/19 11:30:06;;;;;;;;;;;;;;;17.47;40.69;100922.97;5108667;28;869;-53
2022/02/19 11:32:32;;;;;;;;;;;;;;;17.37;40.86;100919.13;5076427;28;986;-53
2022/02/19 11:34:57;;;;;;;;;;;;;;;17.12;41.49;100927.38;5108679;28;864;-53
2022/02/19 11:37:23;;;;;;;;;;;;;;;17.42;40.61;100915.56;5076258;28;1917;-53
2022/02/19 11:40:04;;;;;;;;;;;;;;;17.77;40.16;100922.94;5076319;28;837;-53
2022/02/19 11:42:40;;;;;;;;;;;;;;;17.51;40.54;100910.31;5076490;28;754;-53
2022/02/19 11:45:16;;;;;;;;;;;;;;;16.96;41.65;100905.38;5075931;28;921;-52
2022/02/19 11:47:41;;;;;;;;;;;;;;;17.10;41.59;100890.00;5076033;28;785;-53
2022/02/19 11:50:17;;;;;;;;;;;;;;;17.38;40.96;100889.72;5076315;28;805;-54
2022/02/19 11:52:42;;;;;;;;;;;;;;;17.48;40.54;100884.22;5076554;28;851;-52
2022/02/19 11:55:27;;;;;;;;;;;;;;;17.23;41.22;100896.03;5076282;28;781;-52
2022/02/19 11:58:08;;;;;;;;;;;;;;;16.78;42.36;100892.97;5075998;28;1981;-55
2022/02/19 12:00:53;;;;;;;;;;;;;;;16.84;41.98;100880.88;5075772;28;859;-52
2022/02/19 12:03:20;;;;;;;;;;;;;;;17.74;40.06;100878.66;5076100;28;880;-54
2022/02/19 12:06:05;;;;;;;;;;;;;;;17.26;40.79;100890.84;5076215;28;796;-53
2022/02/19 12:08:48;;;;;;;;;;;;;;;16.86;42.08;100877.88;5072103;28;866;-52
2022/02/19 12:11:14;;;;;;;;;;;;;;;17.41;40.72;100872.69;5080161;28;1004;-55
2022/02/19 12:13:45;;;;;;;;;;;;;;;17.70;40.22;100875.66;5079948;28;1233;-52
2022/02/19 12:16:43;;;;;;;;;;;;;;;16.94;41.55;100874.59;5080362;28;924;-54
2022/02/19 12:19:10;;;;;;;;;;;;;;;16.41;43.00;100867.34;5062674;28;1221;-53
2022/02/19 12:21:39;;;;;;;;;;;;;;;17.17;41.49;100864.19;5079128;28;804;-53
2022/02/19 12:24:23;;;;;;;;;;;;;;;17.52;40.40;100859.75;5079980;28;860;-53
2022/02/19 12:26:59;;;;;;;;;;;;;;;17.19;41.05;100854.53;5080013;28;990;-53
2022/02/19 12:29:29;;;;;;;;;;;;;;;16.72;42.16;100861.91;5079784;28;798;-49
2022/02/19 12:32:20;;;;;;;;;;;;;;;17.13;41.23;100855.66;5080008;28;906;-52
2022/02/19 12:34:52;;;;;;;;;;;;;;;17.53;40.21;100853.13;5074629;28;773;-53
2022/02/19 12:37:18;;;;;;;;;;;;;;;17.27;41.00;100851.25;5080019;28;1906;-54
2022/02/19 12:39:47;;;;;;;;;;;;;;;17.08;41.37;100845.50;5079362;28;1352;-54
2022/02/19 12:42:19;;;;;;;;;;;;;;;16.59;42.44;100852.31;5077015;28;1274;-50
2022/02/19 12:44:46;;;;;;;;;;;;;;;17.14;41.35;100839.97;5079717;28;789;-51
2022/02/19 12:47:12;;;;;;;;;;;;;;;17.57;40.11;100843.22;5079114;28;905;-53
2022/02/19 12:49:37;;;;;;;;;;;;;;;17.33;40.92;100852.06;5079349;28;845;-53
2022/02/19 12:52:03;;;;;;;;;;;;;;;17.00;41.41;100857.03;5079549;28;861;-54
2022/02/19 12:54:43;;;;;;;;;;;;;;;16.95;41.45;100848.78;5079732;28;816;-54
2022/02/19 12:57:09;;;;;;;;;;;;;;;17.34;40.88;100845.47;5079074;28;1959;-54
2022/02/19 12:59:35;;;;;;;;;;;;;;;17.86;39.76;100848.09;5079326;28;788;-55
2022/02/19 13:02:01;;;;;;;;;;;;;;;17.64;40.32;100837.44;5079075;28;878;-55
2022/02/19 13:04:27;;;;;;;;;;;;;;;17.33;40.64;100832.81;5078875;28;819;-53
2022/02/19 13:06:53;;;;;;;;;;;;;;;16.96;41.80;100825.72;5079367;28;734;-51